Time;durP1;ratioP1;P1;durP2;ratioP2;P2;SDS_P1;SDS_P2;PMS_P1;PMS_P2;Temp;Humidity;BMP_temperature;BMP_pressure;BME280_temperature;BME280_humidity;BME280_pressure;Samples;Min_cycle;Max_cycle;Signal;HPM_P1;HPM_P2
2023/01/24 00:02:04;;;;;;;16.95;10.70;;;1.60;99.90;;;;;;5014797;28;20508;-59
2023/01/24 00:04:30;;;;;;;13.80;9.68;;;1.60;99.90;;;;;;5006580;28;20485;-59
2023/01/24 00:06:55;;;;;;;17.48;11.65;;;1.60;99.90;;;;;;5007644;28;20105;-60
2023/01/24 00:09:21;;;;;;;15.75;11.45;;;1.60;99.90;;;;;;5014982;28;20029;-59
2023/01/24 00:11:46;;;;;;;13.02;9.43;;;1.60;99.90;;;;;;5013479;28;20030;-60
2023/01/24 00:14:12;;;;;;;14.52;9.80;;;1.60;99.90;;;;;;5012135;28;20053;-60
2023/01/24 00:16:38;;;;;;;17.08;10.68;;;1.60;99.90;;;;;;5011910;28;20073;-59
2023/01/24 00:19:03;;;;;;;17.02;12.02;;;1.60;99.90;;;;;;5012729;28;20127;-60
2023/01/24 00:21:29;;;;;;;16.33;10.63;;;1.60;99.90;;;;;;5010327;28;20513;-59
2023/01/24 00:23:55;;;;;;;18.15;12.18;;;1.60;99.90;;;;;;5012040;28;20041;-60
2023/01/24 00:26:22;;;;;;;16.85;11.32;;;1.60;99.90;;;;;;5007610;28;20520;-61
2023/01/24 00:28:49;;;;;;;15.20;11.02;;;1.70;99.90;;;;;;5010817;28;20064;-59
2023/01/24 00:31:15;;;;;;;15.82;10.60;;;1.60;99.90;;;;;;5012878;28;20470;-61
2023/01/24 00:33:41;;;;;;;13.40;9.43;;;1.60;99.90;;;;;;5008232;28;20060;-60
2023/01/24 00:36:08;;;;;;;13.23;10.00;;;1.60;99.90;;;;;;5008841;28;20783;-59
2023/01/24 00:38:33;;;;;;;15.35;10.68;;;1.60;99.90;;;;;;5006950;28;20121;-59
2023/01/24 00:40:59;;;;;;;18.17;11.13;;;1.60;99.90;;;;;;5006583;28;20145;-59
2023/01/24 00:43:28;;;;;;;12.27;9.02;;;1.60;99.90;;;;;;5007516;28;20034;-60
2023/01/24 00:45:54;;;;;;;17.83;10.52;;;1.60;99.90;;;;;;5004776;28;20164;-59
2023/01/24 00:48:21;;;;;;;14.73;10.55;;;1.60;99.90;;;;;;5000925;28;20031;-59
2023/01/24 00:50:46;;;;;;;15.73;10.57;;;1.60;99.90;;;;;;5003589;28;20022;-61
2023/01/24 00:53:12;;;;;;;16.77;10.70;;;1.60;99.90;;;;;;4987543;28;20037;-60
2023/01/24 00:55:42;;;;;;;17.13;10.98;;;1.60;99.90;;;;;;5006431;28;20018;-59
2023/01/24 00:58:08;;;;;;;14.43;9.95;;;1.60;99.90;;;;;;4997995;28;20076;-60
2023/01/24 01:00:34;;;;;;;14.70;11.25;;;1.60;99.90;;;;;;5012167;28;20469;-60
2023/01/24 01:03:00;;;;;;;13.90;9.88;;;1.60;99.90;;;;;;5011420;28;20079;-59
2023/01/24 01:05:25;;;;;;;13.73;10.63;;;1.60;99.90;;;;;;5010582;28;20029;-59
2023/01/24 01:07:51;;;;;;;16.02;9.57;;;1.60;99.90;;;;;;5006865;28;20030;-59
2023/01/24 01:10:17;;;;;;;17.70;9.80;;;1.60;99.90;;;;;;5011224;28;20375;-60
2023/01/24 01:12:43;;;;;;;15.60;10.50;;;1.60;99.90;;;;;;5011578;28;20037;-60
2023/01/24 01:15:09;;;;;;;14.13;10.00;;;1.60;99.90;;;;;;5015291;28;20033;-60
2023/01/24 01:17:34;;;;;;;17.83;12.10;;;1.60;99.90;;;;;;5010688;28;20025;-60
2023/01/24 01:20:00;;;;;;;12.70;9.70;;;1.60;99.90;;;;;;5007020;28;20036;-59
2023/01/24 01:22:26;;;;;;;15.90;10.65;;;1.60;99.90;;;;;;5011179;28;20033;-60
2023/01/24 01:24:51;;;;;;;12.95;10.10;;;1.60;99.90;;;;;;5008950;28;20034;-58
2023/01/24 01:27:17;;;;;;;12.85;9.15;;;1.60;99.90;;;;;;5008165;28;20475;-58
2023/01/24 01:29:42;;;;;;;15.13;10.32;;;1.60;99.90;;;;;;5007119;28;20057;-60
2023/01/24 01:32:08;;;;;;;17.75;10.90;;;1.70;99.90;;;;;;5006229;28;20059;-58
2023/01/24 01:34:34;;;;;;;14.55;10.05;;;1.60;99.90;;;;;;5007584;28;20489;-59
2023/01/24 01:36:59;;;;;;;15.65;9.88;;;1.60;99.90;;;;;;5013037;28;20148;-59
2023/01/24 01:39:25;;;;;;;13.95;10.38;;;1.60;99.90;;;;;;5012651;28;20509;-60
2023/01/24 01:41:50;;;;;;;16.90;10.65;;;1.60;99.90;;;;;;5008240;28;20030;-59
2023/01/24 01:44:49;;;;;;;13.98;9.85;;;1.60;99.90;;;;;;5012802;28;20470;-59
2023/01/24 01:47:24;;;;;;;15.63;10.80;;;1.60;99.90;;;;;;5012916;28;20027;-60
2023/01/24 01:50:05;;;;;;;17.73;11.05;;;1.60;99.90;;;;;;5009256;28;20034;-60
2023/01/24 01:52:35;;;;;;;19.20;10.75;;;1.60;99.90;;;;;;5003119;28;20104;-60
2023/01/24 01:55:08;;;;;;;13.83;9.33;;;1.60;99.90;;;;;;5003403;28;20588;-60
2023/01/24 01:57:35;;;;;;;16.40;10.05;;;1.60;99.90;;;;;;5005200;28;20066;-62
2023/01/24 02:00:13;;;;;;;16.10;10.68;;;1.60;99.90;;;;;;5003773;28;20053;-61
2023/01/24 02:02:44;;;;;;;15.20;9.60;;;1.60;99.90;;;;;;5007258;28;20113;-60
2023/01/24 02:05:13;;;;;;;14.95;10.20;;;1.60;99.90;;;;;;5004960;28;20022;-58
2023/01/24 02:07:45;;;;;;;15.70;11.93;;;1.60;99.90;;;;;;5007220;28;20021;-61
2023/01/24 02:10:12;;;;;;;18.02;10.80;;;1.60;99.90;;;;;;5001956;28;20486;-59
2023/01/24 02:12:41;;;;;;;16.73;11.20;;;1.60;99.90;;;;;;5002628;28;20402;-60
2023/01/24 02:17:55;;;;;;;15.07;10.00;;;1.60;99.90;;;;;;5015298;28;20129;-61
2023/01/24 02:20:28;;;;;;;16.17;10.88;;;1.60;99.90;;;;;;5002747;28;20129;-59
2023/01/24 02:23:01;;;;;;;12.50;8.52;;;1.60;99.90;;;;;;5007107;28;20129;-59
2023/01/24 02:25:44;;;;;;;16.08;10.35;;;1.60;99.90;;;;;;5004519;28;20105;-60
2023/01/24 02:28:10;;;;;;;10.77;8.40;;;1.60;99.90;;;;;;5013144;28;20407;-60
2023/01/24 02:30:37;;;;;;;13.02;9.63;;;1.60;99.90;;;;;;5014497;28;20102;-59
2023/01/24 02:33:18;;;;;;;16.88;9.38;;;1.60;99.90;;;;;;5010699;28;20030;-59
2023/01/24 02:35:44;;;;;;;13.18;9.35;;;1.70;99.90;;;;;;5005736;28;20122;-60
2023/01/24 02:38:21;;;;;;;15.55;10.05;;;1.70;99.90;;;;;;5010224;28;20029;-59
2023/01/24 02:40:52;;;;;;;17.88;10.80;;;1.60;99.90;;;;;;5012525;28;20055;-59
2023/01/24 02:43:20;;;;;;;14.02;9.05;;;1.60;99.90;;;;;;5012007;28;20010;-60
2023/01/24 02:45:46;;;;;;;13.23;9.02;;;1.60;99.90;;;;;;5007563;28;20022;-60
2023/01/24 02:48:12;;;;;;;17.88;10.50;;;1.60;99.90;;;;;;5011372;28;20037;-59
2023/01/24 02:53:31;;;;;;;10.98;7.93;;;1.60;99.90;;;;;;5010394;28;20065;-59
2023/01/24 02:58:46;;;;;;;13.93;9.02;;;1.60;99.90;;;;;;5008491;28;20037;-59
2023/01/24 03:01:14;;;;;;;16.33;10.18;;;1.60;99.90;;;;;;5014836;28;20021;-59
2023/01/24 03:03:42;;;;;;;14.27;8.95;;;1.60;99.90;;;;;;5015982;28;20463;-61
2023/01/24 03:06:07;;;;;;;12.80;9.05;;;1.60;99.90;;;;;;5018052;28;20030;-58
2023/01/24 03:08:34;;;;;;;12.88;8.93;;;1.60;99.90;;;;;;5016943;28;20536;-59
2023/01/24 03:11:00;;;;;;;13.13;8.65;;;1.60;99.90;;;;;;5011281;28;20869;-59
2023/01/24 03:35:23;;;;;;;15.95;11.20;;;1.60;99.90;;;;;;5007732;28;20072;-60
2023/01/24 03:40:34;;;;;;;20.23;11.73;;;1.60;99.90;;;;;;5007019;28;20179;-59
2023/01/24 03:43:00;;;;;;;25.38;13.50;;;1.60;99.90;;;;;;5007043;28;20033;-60
2023/01/24 03:45:28;;;;;;;23.30;13.80;;;1.60;99.90;;;;;;5011034;28;20563;-59
2023/01/24 03:48:02;;;;;;;22.20;11.15;;;1.60;99.90;;;;;;5006339;28;20073;-59
2023/01/24 03:53:22;;;;;;;16.48;10.02;;;1.70;99.90;;;;;;5014383;28;20037;-60
2023/01/24 03:55:52;;;;;;;13.32;8.10;;;1.70;99.90;;;;;;5014661;28;20018;-59
2023/01/24 03:58:18;;;;;;;13.20;9.48;;;1.70;99.90;;;;;;5009820;28;20482;-59
2023/01/24 04:00:43;;;;;;;12.77;8.95;;;1.60;99.90;;;;;;5009439;28;20088;-59
2023/01/24 04:03:09;;;;;;;15.13;7.47;;;1.70;99.90;;;;;;5015387;28;20056;-60
2023/01/24 04:05:35;;;;;;;11.82;7.07;;;1.70;99.90;;;;;;5011492;28;20037;-59
2023/01/24 04:08:02;;;;;;;10.80;7.97;;;1.70;99.90;;;;;;5013081;28;20498;-60
2023/01/24 04:10:28;;;;;;;15.55;8.10;;;1.70;99.90;;;;;;5007453;28;20100;-60
2023/01/24 04:12:55;;;;;;;37.95;14.85;;;1.70;99.90;;;;;;4998465;28;20573;-60
2023/01/24 04:15:27;;;;;;;12.82;8.27;;;1.70;99.90;;;;;;5012694;28;20030;-60
2023/01/24 04:17:56;;;;;;;10.50;7.95;;;1.70;99.90;;;;;;4997220;28;20061;-60
2023/01/24 04:20:22;;;;;;;12.57;8.70;;;1.70;99.90;;;;;;4985169;28;20046;-61
2023/01/24 04:22:48;;;;;;;20.00;10.02;;;1.60;99.90;;;;;;5012021;28;20034;-59
2023/01/24 04:25:13;;;;;;;10.15;7.10;;;1.70;99.90;;;;;;5009751;28;20040;-60
2023/01/24 04:27:39;;;;;;;12.85;8.15;;;1.70;99.90;;;;;;5007584;28;20117;-59
2023/01/24 04:30:07;;;;;;;10.25;7.32;;;1.70;99.90;;;;;;5006287;28;20117;-59
2023/01/24 04:32:33;;;;;;;12.10;7.60;;;1.70;99.90;;;;;;5013131;28;20030;-59
2023/01/24 04:35:00;;;;;;;16.38;9.93;;;1.70;99.90;;;;;;5013579;28;20030;-59
2023/01/24 04:37:26;;;;;;;17.77;8.77;;;1.70;99.90;;;;;;5012163;28;20504;-59
2023/01/24 04:39:52;;;;;;;10.15;7.60;;;1.70;99.90;;;;;;5014280;28;20045;-59
2023/01/24 04:42:17;;;;;;;15.52;8.60;;;1.70;99.90;;;;;;5007794;28;20026;-59
2023/01/24 04:44:43;;;;;;;11.68;8.45;;;1.70;99.90;;;;;;5003070;28;20038;-59
2023/01/24 04:47:08;;;;;;;12.70;9.45;;;1.70;99.90;;;;;;5004463;28;20105;-59
2023/01/24 04:49:34;;;;;;;14.25;9.07;;;1.70;99.90;;;;;;5004894;28;20049;-59
2023/01/24 04:52:00;;;;;;;10.75;8.25;;;1.70;99.90;;;;;;5012175;28;20631;-60
2023/01/24 04:54:25;;;;;;;11.30;9.07;;;1.70;99.90;;;;;;5012849;28;20022;-59
2023/01/24 04:56:51;;;;;;;12.95;9.02;;;1.70;99.90;;;;;;5013690;28;20026;-60
2023/01/24 04:59:17;;;;;;;9.93;7.63;;;1.70;99.90;;;;;;5010096;28;20027;-59
2023/01/24 05:01:42;;;;;;;17.67;10.65;;;1.80;99.90;;;;;;5009362;28;20100;-59
2023/01/24 05:04:08;;;;;;;20.45;10.52;;;1.70;99.90;;;;;;5005724;28;20086;-59
2023/01/24 05:06:34;;;;;;;14.38;8.85;;;1.70;99.90;;;;;;5007057;28;20034;-59
2023/01/24 05:09:00;;;;;;;12.77;7.78;;;1.70;99.90;;;;;;5001320;28;20038;-59
2023/01/24 05:11:26;;;;;;;14.95;8.20;;;1.70;99.90;;;;;;5016867;28;20036;-59
2023/01/24 05:13:52;;;;;;;23.33;11.55;;;1.70;99.90;;;;;;5015910;28;20397;-59
2023/01/24 05:16:18;;;;;;;11.73;7.88;;;1.70;99.90;;;;;;5013387;28;20018;-58
2023/01/24 05:18:43;;;;;;;10.80;6.72;;;1.70;99.90;;;;;;5007887;28;20107;-58
2023/01/24 05:21:12;;;;;;;10.68;7.40;;;1.70;99.90;;;;;;5010302;28;20034;-58
2023/01/24 05:23:38;;;;;;;10.73;7.20;;;1.70;99.90;;;;;;5010369;28;20034;-59
2023/01/24 05:26:04;;;;;;;13.30;7.13;;;1.70;99.90;;;;;;5007946;28;20057;-59
2023/01/24 05:28:30;;;;;;;13.10;7.60;;;1.80;99.90;;;;;;5010486;28;20022;-59
2023/01/24 05:31:04;;;;;;;15.52;10.90;;;1.70;99.90;;;;;;5005856;28;20548;-59
2023/01/24 05:33:30;;;;;;;14.75;11.93;;;1.70;99.90;;;;;;5013874;28;20034;-60
2023/01/24 05:35:59;;;;;;;34.30;19.20;;;1.70;99.90;;;;;;5011620;28;20037;-59
2023/01/24 05:38:24;;;;;;;11.88;8.73;;;1.70;99.90;;;;;;5010098;28;20462;-60
2023/01/24 05:40:50;;;;;;;13.25;9.57;;;1.70;99.90;;;;;;5006786;28;20104;-59
2023/01/24 05:43:15;;;;;;;13.45;9.18;;;1.70;99.90;;;;;;5012733;28;20021;-58
2023/01/24 05:45:41;;;;;;;24.92;11.60;;;1.60;99.90;;;;;;5004206;28;20117;-59
2023/01/24 05:48:07;;;;;;;10.98;6.72;;;1.60;99.90;;;;;;5006609;28;20136;-59
2023/01/24 05:50:32;;;;;;;13.73;8.95;;;1.60;99.90;;;;;;5009390;28;20030;-59
2023/01/24 05:53:01;;;;;;;11.25;7.88;;;1.70;99.90;;;;;;5009619;28;20018;-59
2023/01/24 05:55:27;;;;;;;15.70;8.82;;;1.70;99.90;;;;;;5005683;28;20030;-59
2023/01/24 05:57:52;;;;;;;14.13;9.63;;;1.70;99.90;;;;;;5010523;28;20018;-60
2023/01/24 06:00:19;;;;;;;15.60;9.73;;;1.70;99.90;;;;;;5016993;28;20041;-59
2023/01/24 06:02:44;;;;;;;13.38;9.10;;;1.70;99.90;;;;;;5010851;28;20110;-59
2023/01/24 06:05:10;;;;;;;14.38;9.32;;;1.70;99.90;;;;;;5013358;28;20117;-60
2023/01/24 06:07:35;;;;;;;14.65;9.52;;;1.70;99.90;;;;;;5011453;28;20029;-58
2023/01/24 06:10:01;;;;;;;13.57;8.98;;;1.70;99.90;;;;;;5016664;28;20032;-61
2023/01/24 06:12:27;;;;;;;14.43;8.68;;;1.70;99.90;;;;;;5013046;28;20025;-59
2023/01/24 06:14:52;;;;;;;11.00;7.38;;;1.60;99.90;;;;;;5016941;28;20038;-58
2023/01/24 06:17:18;;;;;;;16.40;8.57;;;1.60;99.90;;;;;;5007430;28;20026;-58
2023/01/24 06:19:47;;;;;;;15.43;9.68;;;1.60;99.90;;;;;;5002387;28;20030;-58
2023/01/24 06:22:24;;;;;;;12.13;9.35;;;1.60;99.90;;;;;;5005298;28;20034;-59
2023/01/24 06:24:50;;;;;;;15.38;8.95;;;1.60;99.90;;;;;;5002304;28;20060;-58
2023/01/24 06:27:16;;;;;;;13.57;8.88;;;1.60;99.90;;;;;;5006102;28;20490;-59
2023/01/24 06:29:42;;;;;;;11.10;8.65;;;1.60;99.90;;;;;;5012301;28;20060;-59
2023/01/24 06:32:10;;;;;;;14.55;9.23;;;1.60;99.90;;;;;;5012142;28;20390;-58
2023/01/24 06:35:09;;;;;;;11.30;8.43;;;1.60;99.90;;;;;;5014481;28;20382;-58
2023/01/24 06:37:44;;;;;;;11.93;7.97;;;1.60;99.90;;;;;;5017648;28;20036;-60
2023/01/24 06:40:12;;;;;;;10.93;7.03;;;1.60;99.90;;;;;;5016485;28;20048;-59
2023/01/24 06:42:38;;;;;;;10.10;7.38;;;1.60;99.90;;;;;;5012760;28;20026;-59
2023/01/24 06:45:05;;;;;;;10.52;8.07;;;1.60;99.90;;;;;;5012756;28;20097;-59
2023/01/24 06:47:30;;;;;;;14.82;9.68;;;1.60;99.90;;;;;;5011794;28;20500;-59
2023/01/24 06:49:56;;;;;;;13.65;10.50;;;1.60;99.90;;;;;;5017737;28;20118;-60
2023/01/24 06:52:21;;;;;;;25.40;12.27;;;1.60;99.90;;;;;;5016902;28;20030;-59
2023/01/24 06:54:47;;;;;;;12.93;9.73;;;1.60;99.90;;;;;;5009443;28;20026;-61
2023/01/24 06:57:13;;;;;;;10.07;7.60;;;1.60;99.90;;;;;;5013546;28;20559;-58
2023/01/24 06:59:39;;;;;;;11.23;9.38;;;1.60;99.90;;;;;;5013731;28;20037;-58
2023/01/24 07:02:04;;;;;;;11.23;8.20;;;1.70;99.90;;;;;;5011709;28;20429;-57
2023/01/24 07:04:30;;;;;;;12.70;8.55;;;1.70;99.90;;;;;;5006874;28;20054;-58
2023/01/24 07:06:56;;;;;;;13.25;8.25;;;1.70;99.90;;;;;;5006480;28;20029;-59
2023/01/24 07:09:22;;;;;;;12.07;8.73;;;1.70;99.90;;;;;;5011282;28;20112;-59
2023/01/24 07:11:52;;;;;;;13.05;8.95;;;1.70;99.90;;;;;;5009984;28;20124;-59
2023/01/24 07:14:18;;;;;;;14.65;7.90;;;1.70;99.90;;;;;;5012752;28;20033;-58
2023/01/24 07:16:44;;;;;;;12.48;8.38;;;1.70;99.90;;;;;;5010908;28;20478;-59
2023/01/24 07:19:16;;;;;;;10.82;7.70;;;1.70;99.90;;;;;;5010031;28;20112;-59
2023/01/24 07:21:42;;;;;;;12.45;8.75;;;1.70;99.90;;;;;;5014472;28;20115;-59
2023/01/24 07:24:16;;;;;;;11.50;7.65;;;1.70;99.90;;;;;;5009372;28;20470;-58
2023/01/24 07:26:43;;;;;;;9.50;7.00;;;1.70;99.90;;;;;;5017615;28;20026;-58
2023/01/24 07:29:08;;;;;;;11.55;8.40;;;1.70;99.90;;;;;;5015693;28;20041;-59
2023/01/24 07:31:34;;;;;;;10.65;8.18;;;1.70;99.90;;;;;;5013296;28;20354;-59
2023/01/24 07:33:59;;;;;;;13.65;8.60;;;1.70;99.90;;;;;;5011865;28;20016;-59
2023/01/24 07:36:25;;;;;;;11.10;8.50;;;1.70;99.90;;;;;;5006274;28;20034;-58
2023/01/24 07:38:55;;;;;;;12.27;8.70;;;1.70;99.90;;;;;;5005692;28;20042;-59
2023/01/24 07:41:21;;;;;;;14.68;9.05;;;1.70;99.90;;;;;;5007119;28;20070;-60
2023/01/24 07:43:47;;;;;;;17.83;9.75;;;1.70;99.90;;;;;;5009923;28;20045;-59
2023/01/24 07:46:12;;;;;;;19.30;10.18;;;1.70;99.90;;;;;;5008451;28;20017;-59
2023/01/24 07:48:38;;;;;;;19.08;10.27;;;1.80;99.90;;;;;;5016775;28;20029;-59
2023/01/24 07:51:04;;;;;;;19.65;10.93;;;1.70;99.90;;;;;;5016320;28;20037;-59
2023/01/24 07:53:30;;;;;;;11.48;7.13;;;1.80;99.90;;;;;;5014285;28;20084;-59
2023/01/24 07:55:59;;;;;;;11.35;8.55;;;1.80;99.90;;;;;;5011220;28;20780;-59
2023/01/24 07:58:25;;;;;;;10.18;8.57;;;1.80;99.90;;;;;;5006913;28;20054;-58
2023/01/24 08:00:50;;;;;;;10.65;8.15;;;1.80;99.90;;;;;;5009503;28;20095;-59
2023/01/24 08:03:17;;;;;;;17.27;10.70;;;1.70;99.90;;;;;;5012951;28;20036;-59
2023/01/24 08:05:43;;;;;;;10.38;8.05;;;1.80;99.90;;;;;;5013706;28;20045;-59
2023/01/24 08:08:08;;;;;;;11.88;9.15;;;1.80;99.90;;;;;;5016544;28;20567;-59
2023/01/24 08:10:35;;;;;;;9.95;8.07;;;1.80;99.90;;;;;;5009637;28;20065;-59
2023/01/24 08:13:00;;;;;;;11.52;8.10;;;1.80;99.90;;;;;;5008724;28;20675;-58
2023/01/24 08:15:26;;;;;;;14.25;7.60;;;1.90;99.90;;;;;;5009964;28;20045;-58
2023/01/24 08:17:52;;;;;;;10.63;8.70;;;1.90;99.90;;;;;;5007810;28;20030;-59
2023/01/24 08:20:17;;;;;;;9.48;7.07;;;1.90;99.90;;;;;;5006922;28;20033;-58
2023/01/24 08:22:43;;;;;;;12.05;8.00;;;1.90;99.90;;;;;;5008668;28;20375;-58
2023/01/24 08:25:09;;;;;;;11.25;8.18;;;1.90;99.90;;;;;;5010790;28;20030;-59
2023/01/24 08:27:35;;;;;;;10.73;6.50;;;2.00;99.90;;;;;;5015615;28;20080;-59
2023/01/24 08:30:02;;;;;;;8.43;7.25;;;2.00;99.90;;;;;;5018160;28;20038;-58
2023/01/24 08:32:28;;;;;;;9.50;7.00;;;1.90;99.90;;;;;;5014905;28;20034;-59
2023/01/24 08:34:54;;;;;;;12.02;8.02;;;2.00;99.90;;;;;;5013351;28;20493;-58
2023/01/24 08:37:19;;;;;;;7.30;5.72;;;2.00;99.90;;;;;;5013177;28;20018;-58
2023/01/24 08:39:45;;;;;;;16.02;9.07;;;2.00;99.90;;;;;;5011604;28;20550;-59
2023/01/24 08:42:11;;;;;;;9.13;7.35;;;2.00;99.90;;;;;;5013541;28;20030;-59
2023/01/24 08:44:36;;;;;;;10.63;7.07;;;2.10;99.90;;;;;;5011799;28;20025;-59
2023/01/24 08:47:02;;;;;;;7.82;6.05;;;2.00;99.90;;;;;;5009694;28;20058;-58
2023/01/24 08:49:27;;;;;;;10.88;6.18;;;2.10;99.90;;;;;;5011138;28;20038;-58
2023/01/24 08:51:58;;;;;;;11.77;9.35;;;2.10;99.90;;;;;;5007885;28;20514;-59
2023/01/24 08:54:28;;;;;;;11.75;7.03;;;2.20;99.90;;;;;;5015272;28;20036;-59
2023/01/24 08:56:54;;;;;;;9.53;8.07;;;2.20;99.90;;;;;;5011394;28;20034;-59
2023/01/24 08:59:20;;;;;;;8.43;6.15;;;2.20;99.90;;;;;;5011544;28;20103;-59
2023/01/24 09:01:46;;;;;;;9.85;6.57;;;2.20;99.90;;;;;;5003216;28;20021;-59
2023/01/24 09:04:12;;;;;;;8.23;6.25;;;2.20;99.90;;;;;;5010874;28;20516;-59
2023/01/24 09:06:37;;;;;;;9.57;7.43;;;2.30;99.90;;;;;;5013539;28;20037;-59
2023/01/24 09:09:03;;;;;;;7.57;5.65;;;2.30;99.90;;;;;;5008885;28;20034;-58
2023/01/24 09:11:30;;;;;;;8.18;6.05;;;2.30;99.90;;;;;;5001409;28;20144;-59
2023/01/24 09:13:56;;;;;;;11.15;6.32;;;2.30;99.90;;;;;;5002399;28;20034;-59
2023/01/24 09:16:22;;;;;;;9.32;7.18;;;2.40;99.90;;;;;;5000575;28;20125;-59
2023/01/24 09:18:50;;;;;;;11.77;7.75;;;2.40;99.90;;;;;;5009708;28;20386;-59
2023/01/24 09:21:16;;;;;;;7.47;6.07;;;2.30;99.90;;;;;;5017648;28;20511;-59
2023/01/24 09:23:42;;;;;;;8.82;6.88;;;2.40;99.90;;;;;;5013901;28;20117;-59
2023/01/24 09:26:08;;;;;;;7.85;6.30;;;2.40;99.90;;;;;;5013248;28;20148;-59
2023/01/24 09:28:34;;;;;;;7.90;6.10;;;2.50;99.90;;;;;;5007551;28;20398;-59
2023/01/24 09:31:01;;;;;;;8.88;6.55;;;2.50;99.90;;;;;;5016938;28;20030;-59
2023/01/24 09:33:26;;;;;;;12.88;7.88;;;2.50;99.90;;;;;;5009127;28;20521;-59
2023/01/24 09:36:00;;;;;;;13.85;8.48;;;2.50;99.90;;;;;;5006684;28;20113;-59
2023/01/24 09:38:29;;;;;;;8.27;5.68;;;2.50;99.90;;;;;;5008895;28;20030;-58
2023/01/24 09:41:04;;;;;;;6.97;6.05;;;2.60;99.90;;;;;;5027365;28;20037;-59
2023/01/24 09:44:11;;;;;;;10.43;5.47;;;2.50;99.90;;;;;;5013642;28;20072;-60
2023/01/24 09:46:48;;;;;;;10.57;7.43;;;2.60;99.90;;;;;;5007492;28;20457;-61
2023/01/24 09:49:36;;;;;;;9.98;7.00;;;2.60;99.90;;;;;;5001814;28;20030;-59
2023/01/24 09:52:06;;;;;;;6.00;5.00;;;2.60;99.90;;;;;;5010755;28;20477;-59
2023/01/24 09:54:55;;;;;;;8.80;6.05;;;2.60;99.90;;;;;;5009433;28;20116;-59
2023/01/24 09:57:55;;;;;;;8.68;5.25;;;2.60;99.90;;;;;;5013057;28;20054;-59
2023/01/24 10:00:35;;;;;;;9.23;6.47;;;2.60;99.90;;;;;;5006332;28;20025;-59
2023/01/24 10:03:01;;;;;;;8.48;6.68;;;2.60;99.90;;;;;;5013389;28;20545;-59
2023/01/24 10:05:34;;;;;;;8.50;5.78;;;2.70;99.90;;;;;;5017968;28;20038;-59
2023/01/24 10:08:09;;;;;;;7.95;5.85;;;2.70;99.90;;;;;;5018134;28;20112;-59
2023/01/24 10:10:49;;;;;;;7.88;5.43;;;2.70;99.90;;;;;;5013698;28;20030;-58
2023/01/24 10:13:18;;;;;;;8.80;6.88;;;2.70;99.90;;;;;;5014424;28;20014;-59
2023/01/24 10:16:02;;;;;;;10.20;5.65;;;2.70;99.90;;;;;;5014577;28;20069;-58
2023/01/24 10:19:11;;;;;;;7.40;5.20;;;2.80;99.90;;;;;;5014068;28;20088;-59
2023/01/24 10:21:54;;;;;;;9.00;6.28;;;2.80;99.90;;;;;;5024175;28;20775;-59
2023/01/24 10:24:25;;;;;;;7.15;5.47;;;2.70;99.90;;;;;;5015059;28;20475;-59
2023/01/24 10:26:52;;;;;;;8.40;6.45;;;2.70;99.90;;;;;;5018714;28;20079;-58
2023/01/24 10:29:29;;;;;;;10.27;6.30;;;2.70;99.90;;;;;;5014945;28;20535;-59
2023/01/24 10:32:05;;;;;;;6.82;5.80;;;2.80;99.90;;;;;;5009938;28;20046;-59
2023/01/24 10:34:36;;;;;;;6.72;5.20;;;2.90;99.90;;;;;;5014950;28;20109;-59
2023/01/24 10:37:08;;;;;;;9.77;6.70;;;2.80;99.90;;;;;;5024215;28;20031;-59
2023/01/24 10:39:34;;;;;;;10.32;6.72;;;2.90;99.90;;;;;;5013723;28;20022;-59
2023/01/24 10:42:00;;;;;;;9.50;6.68;;;2.90;99.90;;;;;;5013187;28;20035;-59
2023/01/24 10:44:28;;;;;;;8.48;6.43;;;2.80;99.90;;;;;;5020457;28;20041;-58
2023/01/24 10:47:00;;;;;;;8.88;5.70;;;2.80;99.90;;;;;;5014232;28;20037;-58
2023/01/24 10:49:40;;;;;;;8.05;5.90;;;2.80;99.90;;;;;;5012655;28;20136;-58
2023/01/24 10:52:21;;;;;;;8.40;7.10;;;2.80;99.90;;;;;;5013871;28;20033;-59
2023/01/24 10:54:49;;;;;;;8.70;5.78;;;2.80;99.90;;;;;;5011087;28;20401;-59
2023/01/24 10:57:41;;;;;;;7.40;5.82;;;2.90;99.90;;;;;;5016948;28;20612;-60
2023/01/24 11:00:35;;;;;;;7.60;5.72;;;2.90;99.90;;;;;;5017143;28;20030;-59
2023/01/24 11:03:03;;;;;;;10.15;6.90;;;2.90;99.90;;;;;;5013450;28;20033;-59
2023/01/24 11:05:58;;;;;;;9.15;7.53;;;2.90;99.90;;;;;;5006416;28;20610;-58
2023/01/24 11:08:31;;;;;;;11.60;7.70;;;3.00;99.90;;;;;;5003536;28;20506;-59
2023/01/24 11:10:58;;;;;;;8.93;6.32;;;3.10;99.90;;;;;;5012293;28;20036;-57
2023/01/24 11:13:37;;;;;;;9.85;7.53;;;3.00;99.90;;;;;;5007848;28;20081;-59
2023/01/24 11:16:15;;;;;;;8.43;6.10;;;3.00;99.90;;;;;;5005773;28;20042;-60
2023/01/24 11:18:57;;;;;;;8.52;6.43;;;3.00;99.90;;;;;;5009859;28;20038;-59
2023/01/24 11:21:23;;;;;;;9.15;6.45;;;3.00;99.90;;;;;;5013330;28;20062;-59
2023/01/24 11:24:09;;;;;;;8.23;6.20;;;3.10;99.90;;;;;;5018855;28;20038;-58
2023/01/24 11:27:13;;;;;;;10.85;7.20;;;3.10;99.90;;;;;;5012267;28;20066;-59
2023/01/24 11:29:39;;;;;;;8.60;5.82;;;3.10;99.90;;;;;;4998997;28;20031;-60
2023/01/24 11:32:43;;;;;;;9.25;7.25;;;3.10;99.90;;;;;;5009247;28;20104;-59
2023/01/24 11:35:26;;;;;;;7.95;6.65;;;3.10;99.90;;;;;;5013897;28;20478;-57
2023/01/24 11:38:21;;;;;;;8.32;5.95;;;3.20;99.90;;;;;;5013117;28;20538;-59
2023/01/24 11:40:49;;;;;;;7.70;5.53;;;3.20;99.90;;;;;;5012665;28;20037;-59
2023/01/24 11:43:24;;;;;;;10.00;6.75;;;3.20;99.90;;;;;;5012174;28;20072;-59
2023/01/24 11:46:07;;;;;;;8.48;7.00;;;3.20;99.90;;;;;;5015757;28;20516;-59
2023/01/24 11:48:52;;;;;;;11.13;6.80;;;3.20;99.90;;;;;;5012762;28;20600;-59
2023/01/24 11:51:45;;;;;;;9.80;7.05;;;3.20;99.90;;;;;;5011590;28;20482;-59
2023/01/24 11:54:24;;;;;;;8.57;6.00;;;3.20;99.90;;;;;;5006913;28;20021;-59
2023/01/24 11:57:02;;;;;;;8.05;5.70;;;3.20;99.90;;;;;;5001478;28;20064;-60
2023/01/24 11:59:46;;;;;;;9.68;6.68;;;3.10;99.90;;;;;;5009335;28;20453;-60
2023/01/24 12:03:07;;;;;;;11.48;8.48;;;3.10;99.90;;;;;;5005947;28;20030;-59
2023/01/24 12:05:59;;;;;;;10.65;8.10;;;3.10;99.90;;;;;;4963647;28;20078;-59
2023/01/24 12:08:59;;;;;;;11.38;7.72;;;3.10;99.90;;;;;;4962275;28;20027;-59
2023/01/24 12:11:46;;;;;;;7.97;6.60;;;3.20;99.90;;;;;;5012752;28;20034;-59
2023/01/24 12:14:30;;;;;;;8.85;6.50;;;3.10;99.90;;;;;;5017288;28;20030;-58
2023/01/24 12:17:11;;;;;;;9.65;7.03;;;3.10;99.90;;;;;;5013462;28;20998;-58
2023/01/24 12:19:49;;;;;;;8.55;6.60;;;3.20;99.90;;;;;;5009130;28;20445;-57
2023/01/24 12:22:21;;;;;;;10.10;7.05;;;3.10;99.90;;;;;;5028855;28;20513;-59
2023/01/24 12:25:03;;;;;;;11.30;7.03;;;3.10;99.90;;;;;;5010677;28;20040;-58
2023/01/24 12:27:34;;;;;;;11.30;7.03;;;3.10;99.90;;;;;;5007218;28;20034;-59
2023/01/24 12:30:09;;;;;;;9.85;7.25;;;3.20;99.90;;;;;;5009749;28;20038;-59
2023/01/24 12:32:58;;;;;;;9.75;7.43;;;3.20;99.90;;;;;;5014864;28;21266;-59
2023/01/24 12:35:33;;;;;;;12.65;7.68;;;3.20;99.90;;;;;;5011516;28;20173;-58
2023/01/24 12:38:17;;;;;;;8.57;7.68;;;3.30;99.90;;;;;;5007681;28;20033;-59
2023/01/24 12:41:05;;;;;;;10.32;8.13;;;3.20;99.90;;;;;;5004110;28;20401;-59
2023/01/24 12:43:44;;;;;;;10.00;6.90;;;3.20;99.90;;;;;;5009473;28;20033;-58
2023/01/24 12:46:25;;;;;;;11.10;8.25;;;3.20;99.90;;;;;;5010254;28;20034;-59
2023/01/24 12:49:05;;;;;;;12.65;7.88;;;3.20;99.90;;;;;;5009085;28;20030;-59
2023/01/24 12:51:51;;;;;;;11.70;7.45;;;3.10;99.90;;;;;;4996260;28;20026;-59
2023/01/24 12:54:32;;;;;;;14.48;9.38;;;3.10;99.90;;;;;;5007185;28;20570;-60
2023/01/24 12:57:01;;;;;;;15.90;10.00;;;3.10;99.90;;;;;;5005844;28;20029;-58
2023/01/24 12:59:30;;;;;;;11.52;8.43;;;3.10;99.90;;;;;;5005314;28;20104;-59
2023/01/24 13:02:23;;;;;;;11.48;8.27;;;3.10;99.90;;;;;;5004707;28;20429;-59
2023/01/24 13:05:01;;;;;;;18.85;12.93;;;3.20;99.90;;;;;;5007783;28;20034;-58
2023/01/24 13:07:53;;;;;;;31.23;18.05;;;3.20;99.90;;;;;;5014312;28;20021;-58
2023/01/24 13:10:31;;;;;;;21.58;14.13;;;3.20;99.90;;;;;;4995350;28;20046;-59
2023/01/24 13:12:58;;;;;;;20.10;13.13;;;3.20;99.90;;;;;;5003595;28;20045;-58
2023/01/24 13:15:41;;;;;;;11.20;8.25;;;3.20;99.90;;;;;;5017226;28;20036;-59
2023/01/24 13:18:15;;;;;;;11.60;7.97;;;3.20;99.90;;;;;;5014341;28;21465;-58
2023/01/24 13:21:07;;;;;;;12.07;8.45;;;3.20;99.90;;;;;;5011813;28;20537;-59
2023/01/24 13:24:14;;;;;;;9.60;8.32;;;3.10;99.90;;;;;;4999584;28;20117;-59
2023/01/24 13:26:42;;;;;;;11.00;8.60;;;3.10;99.90;;;;;;4945256;28;20877;-59
2023/01/24 13:29:33;;;;;;;12.07;8.18;;;3.10;99.90;;;;;;4964800;28;20045;-58
2023/01/24 13:32:16;;;;;;;10.43;8.48;;;3.10;99.90;;;;;;5005445;28;20039;-59
2023/01/24 13:34:46;;;;;;;11.27;8.05;;;3.00;99.90;;;;;;5000167;28;20040;-59
2023/01/24 13:37:25;;;;;;;13.65;10.13;;;2.90;99.90;;;;;;5018358;28;20496;-58
2023/01/24 13:40:15;;;;;;;12.82;10.27;;;2.90;99.90;;;;;;5009518;28;20029;-59
2023/01/24 13:42:42;;;;;;;13.27;9.10;;;3.00;99.90;;;;;;5012761;28;20029;-60
2023/01/24 13:45:41;;;;;;;11.27;8.63;;;3.00;99.90;;;;;;5006438;28;20033;-59